createdAt,value
2022-10-13T00:00:15.332Z,18.10
2022-10-13T00:02:42.244Z,19.63
2022-10-13T00:05:10.020Z,15.60
2022-10-13T00:07:38.237Z,19.13
2022-10-13T00:10:06.005Z,16.07
2022-10-13T00:12:34.983Z,13.33
2022-10-13T00:15:02.482Z,17.77
2022-10-13T00:17:29.616Z,19.20
2022-10-13T00:19:56.935Z,15.00
2022-10-13T00:22:23.897Z,17.40
2022-10-13T00:24:53.056Z,20.03
2022-10-13T00:27:20.056Z,17.33
2022-10-13T00:29:47.171Z,20.97
2022-10-13T00:32:14.123Z,15.73
2022-10-13T00:34:42.123Z,19.97
2022-10-13T00:37:09.034Z,16.07
2022-10-13T00:39:37.496Z,23.97
2022-10-13T00:42:09.851Z,16.23
2022-10-13T00:45:01.509Z,17.00
2022-10-13T00:47:33.201Z,15.60
2022-10-13T00:50:01.754Z,17.03
2022-10-13T00:52:30.584Z,14.27
2022-10-13T00:54:59.558Z,15.90
2022-10-13T00:57:28.129Z,19.00
2022-10-13T00:59:55.792Z,24.33
2022-10-13T01:02:23.881Z,14.17
2022-10-13T01:04:52.647Z,16.03
2022-10-13T01:07:19.992Z,16.90
2022-10-13T01:09:47.273Z,13.83
2022-10-13T01:12:26.331Z,21.80
2022-10-13T01:15:02.618Z,14.53
2022-10-13T01:17:36.862Z,19.20
2022-10-13T01:20:30.733Z,17.40
2022-10-13T01:23:14.356Z,12.30
2022-10-13T01:26:06.429Z,16.70
2022-10-13T01:28:49.717Z,14.17
2022-10-13T01:31:24.772Z,19.70
2022-10-13T01:33:58.684Z,15.90
2022-10-13T01:36:32.103Z,14.33
2022-10-13T01:39:06.978Z,22.53
2022-10-13T01:41:37.915Z,17.03
2022-10-13T01:44:16.082Z,18.13
2022-10-13T01:46:47.599Z,19.57
2022-10-13T01:49:18.244Z,16.50
2022-10-13T01:51:46.913Z,16.33
2022-10-13T01:54:13.879Z,15.97
2022-10-13T01:56:41.192Z,23.53
2022-10-13T01:59:11.550Z,18.30
2022-10-13T02:01:53.749Z,18.70
2022-10-13T02:04:30.019Z,15.27
2022-10-13T02:07:04.535Z,16.03
2022-10-13T02:09:39.937Z,22.57
2022-10-13T02:12:12.472Z,17.87
2022-10-13T02:14:42.490Z,21.70
2022-10-13T02:17:11.382Z,19.67
2022-10-13T02:19:39.935Z,19.20
2022-10-13T02:22:08.619Z,22.60
2022-10-13T02:24:35.988Z,25.33
2022-10-13T02:27:05.509Z,23.47
2022-10-13T02:29:32.732Z,16.07
2022-10-13T02:32:00.411Z,19.23
2022-10-13T02:34:28.770Z,17.17
2022-10-13T02:36:55.924Z,12.63
2022-10-13T02:39:22.817Z,18.23
2022-10-13T02:41:51.019Z,19.63
2022-10-13T02:44:17.882Z,18.43
2022-10-13T02:46:45.088Z,15.67
2022-10-13T02:49:12.228Z,19.67
2022-10-13T02:51:40.765Z,20.23
2022-10-13T02:54:08.048Z,22.80
2022-10-13T02:56:35.353Z,20.47
2022-10-13T02:59:02.281Z,18.17
2022-10-13T03:01:29.723Z,17.67
2022-10-13T03:03:56.642Z,19.17
2022-10-13T03:06:23.896Z,18.97
2022-10-13T03:08:52.173Z,20.07
2022-10-13T03:11:19.475Z,18.63
2022-10-13T03:13:46.373Z,16.43
2022-10-13T03:16:13.671Z,20.70
2022-10-13T03:18:40.544Z,17.23
2022-10-13T03:21:08.332Z,17.13
2022-10-13T03:23:35.214Z,16.27
2022-10-13T03:26:04.901Z,23.10
2022-10-13T03:28:31.884Z,20.97
2022-10-13T03:31:03.772Z,21.73
2022-10-13T03:33:30.683Z,21.03
2022-10-13T03:36:00.639Z,19.70
2022-10-13T03:38:27.657Z,22.20
2022-10-13T03:40:55.031Z,18.63
2022-10-13T03:43:23.620Z,19.00
2022-10-13T03:45:56.194Z,24.07
2022-10-13T03:48:23.219Z,21.77
2022-10-13T03:50:52.099Z,17.47
2022-10-13T03:53:20.064Z,20.27
2022-10-13T03:55:50.383Z,18.80
2022-10-13T03:58:17.545Z,22.03
2022-10-13T04:00:46.238Z,18.83
2022-10-13T04:03:13.600Z,21.33
2022-10-13T04:05:41.107Z,20.33
2022-10-13T04:08:08.101Z,19.27
2022-10-13T04:10:35.676Z,17.80
2022-10-13T04:13:02.760Z,20.10
2022-10-13T04:15:30.399Z,20.83
2022-10-13T04:17:58.622Z,20.47
2022-10-13T04:20:25.818Z,31.57
2022-10-13T04:22:52.692Z,21.93
2022-10-13T04:25:20.157Z,24.43
2022-10-13T04:27:48.266Z,26.13
2022-10-13T04:30:15.688Z,23.00
2022-10-13T04:32:42.591Z,21.53
2022-10-13T04:35:11.387Z,23.00
2022-10-13T04:37:41.617Z,27.30
2022-10-13T04:40:12.608Z,33.90
2022-10-13T04:42:39.522Z,23.67
2022-10-13T04:45:08.283Z,24.77
2022-10-13T04:47:37.210Z,22.63
2022-10-13T04:50:05.186Z,22.73
2022-10-13T04:52:34.262Z,20.90
2022-10-13T04:55:01.622Z,33.50
2022-10-13T04:57:28.557Z,24.30
2022-10-13T04:59:55.710Z,20.97
2022-10-13T05:02:22.669Z,25.50
2022-10-13T05:04:49.926Z,22.60
2022-10-13T05:07:18.226Z,27.80
2022-10-13T05:09:47.470Z,23.20
2022-10-13T05:12:15.146Z,26.37
2022-10-13T05:14:42.375Z,22.23
2022-10-13T05:17:09.314Z,27.10
2022-10-13T05:19:36.909Z,29.53
2022-10-13T05:22:04.269Z,26.83
2022-10-13T05:24:36.492Z,26.07
2022-10-13T05:27:07.511Z,28.33
2022-10-13T05:29:34.702Z,28.00
2022-10-13T05:32:01.945Z,26.50
2022-10-13T05:34:29.165Z,21.77
2022-10-13T05:36:56.549Z,25.67
2022-10-13T05:39:23.825Z,23.50
2022-10-13T05:41:50.662Z,25.70
2022-10-13T05:44:19.963Z,23.57
2022-10-13T05:46:46.827Z,23.47
2022-10-13T05:49:13.727Z,25.20
2022-10-13T05:51:45.163Z,24.93
2022-10-13T05:54:16.034Z,30.83
2022-10-13T05:56:47.796Z,30.83
2022-10-13T05:59:21.362Z,34.27
2022-10-13T06:01:51.204Z,24.33
2022-10-13T06:04:21.255Z,26.67
2022-10-13T06:06:49.059Z,31.13
2022-10-13T06:09:16.794Z,31.47
2022-10-13T06:11:43.738Z,29.90
2022-10-13T06:14:10.621Z,30.57
2022-10-13T06:16:39.305Z,33.77
2022-10-13T06:19:06.249Z,29.70
2022-10-13T06:21:35.788Z,29.10
2022-10-13T06:24:02.787Z,33.20
2022-10-13T06:26:30.462Z,34.90
2022-10-13T06:28:59.711Z,34.27
2022-10-13T06:31:27.432Z,32.07
2022-10-13T06:33:55.609Z,36.43
2022-10-13T06:36:22.792Z,35.63
2022-10-13T06:38:50.105Z,26.87
2022-10-13T06:41:17.529Z,34.33
2022-10-13T06:43:44.543Z,33.07
2022-10-13T06:46:12.484Z,33.70
2022-10-13T06:48:39.637Z,39.57
2022-10-13T06:51:11.105Z,33.27
2022-10-13T06:53:38.205Z,38.83
2022-10-13T06:56:07.285Z,35.13
2022-10-13T06:58:34.515Z,30.57
2022-10-13T07:01:01.810Z,26.87
2022-10-13T07:03:28.753Z,29.00
2022-10-13T07:06:00.103Z,29.80
2022-10-13T07:08:28.214Z,35.03
2022-10-13T07:10:55.323Z,35.73
2022-10-13T07:15:54.194Z,34.83
2022-10-13T07:18:21.397Z,32.70
2022-10-13T07:20:48.471Z,36.03
2022-10-13T07:23:15.314Z,36.37
2022-10-13T07:25:43.780Z,27.90
2022-10-13T07:28:10.721Z,33.57
2022-10-13T07:30:39.595Z,24.00
2022-10-13T07:33:06.487Z,33.07
2022-10-13T07:35:33.745Z,31.60
2022-10-13T07:38:00.622Z,34.87
2022-10-13T07:40:27.570Z,30.47
2022-10-13T07:42:57.393Z,32.83
2022-10-13T07:45:24.879Z,33.90
2022-10-13T07:47:51.764Z,36.40
2022-10-13T07:50:19.328Z,28.87
2022-10-13T07:52:46.267Z,32.70
2022-10-13T07:55:13.569Z,31.17
2022-10-13T07:57:40.567Z,32.33
2022-10-13T08:00:11.472Z,33.63
2022-10-13T08:02:38.305Z,28.47
2022-10-13T08:05:06.486Z,31.87
2022-10-13T08:07:33.324Z,30.20
2022-10-13T08:10:00.637Z,30.03
2022-10-13T08:12:27.536Z,30.60
2022-10-13T08:14:54.640Z,29.57
2022-10-13T08:17:23.027Z,33.53
2022-10-13T08:19:51.932Z,35.77
2022-10-13T08:22:19.158Z,37.77
2022-10-13T08:24:46.304Z,30.80
2022-10-13T08:27:20.655Z,35.53
2022-10-13T08:29:48.451Z,37.03
2022-10-13T08:32:15.333Z,34.43
2022-10-13T08:34:43.783Z,40.70
2022-10-13T08:37:13.899Z,28.27
2022-10-13T08:39:41.239Z,29.97
2022-10-13T08:42:14.834Z,33.07
2022-10-13T08:47:42.430Z,39.13
2022-10-13T08:50:15.600Z,26.90
2022-10-13T08:52:49.077Z,29.33
2022-10-13T08:55:35.883Z,30.67
2022-10-13T08:58:09.940Z,37.73
2022-10-13T09:00:38.633Z,28.40
2022-10-13T09:03:20.806Z,26.90
2022-10-13T09:06:02.706Z,29.50
2022-10-13T09:08:36.664Z,31.63
2022-10-13T09:11:03.535Z,27.67
2022-10-13T09:13:30.939Z,31.40
2022-10-13T09:15:58.332Z,34.33
2022-10-13T09:18:30.691Z,47.33
2022-10-13T09:21:17.085Z,27.60
2022-10-13T09:23:44.285Z,40.27
2022-10-13T09:26:18.733Z,26.63
2022-10-13T09:28:46.436Z,28.03
2022-10-13T09:31:18.773Z,27.17
2022-10-13T09:33:46.700Z,25.77
2022-10-13T09:36:16.330Z,24.10
2022-10-13T09:39:04.164Z,21.40
2022-10-13T09:41:31.215Z,28.50
2022-10-13T09:44:01.747Z,22.17
2022-10-13T09:46:33.031Z,24.70
2022-10-13T09:49:06.955Z,29.33
2022-10-13T09:51:38.907Z,29.40
2022-10-13T09:54:07.713Z,24.47
2022-10-13T09:56:40.010Z,25.40
2022-10-13T09:59:15.108Z,24.50
2022-10-13T10:01:45.157Z,29.33
2022-10-13T10:04:16.464Z,17.73
2022-10-13T10:06:46.696Z,22.60
2022-10-13T10:09:35.353Z,17.80
2022-10-13T10:12:04.315Z,20.27
2022-10-13T10:14:32.751Z,17.63
2022-10-13T10:17:07.679Z,18.53
2022-10-13T10:19:50.966Z,23.23
2022-10-13T10:22:28.356Z,15.53
2022-10-13T10:25:10.048Z,12.67
2022-10-13T10:27:43.776Z,21.07
2022-10-13T10:30:16.439Z,17.07
2022-10-13T10:32:53.126Z,17.03
2022-10-13T10:35:29.501Z,21.73
2022-10-13T10:38:09.089Z,13.70
2022-10-13T10:40:43.620Z,16.80
2022-10-13T10:43:26.535Z,15.73
2022-10-13T10:45:56.660Z,19.07
2022-10-13T10:48:27.452Z,17.00
2022-10-13T10:50:54.726Z,18.10
2022-10-13T10:53:32.150Z,14.67
2022-10-13T10:56:04.582Z,12.20
2022-10-13T10:58:41.304Z,13.30
2022-10-13T11:01:19.410Z,19.07
2022-10-13T11:03:54.343Z,14.13
2022-10-13T11:06:37.251Z,18.37
2022-10-13T11:09:06.539Z,12.97
2022-10-13T11:11:41.184Z,10.47
2022-10-13T11:14:27.959Z,10.03
2022-10-13T11:17:28.139Z,12.50
2022-10-13T11:19:55.873Z,12.33
2022-10-13T11:22:27.283Z,11.83
2022-10-13T11:25:01.620Z,16.07
2022-10-13T11:27:40.962Z,16.17
2022-10-13T11:30:41.020Z,12.60
2022-10-13T11:33:37.125Z,13.90
2022-10-13T11:36:35.335Z,10.20
2022-10-13T11:42:16.522Z,16.20
2022-10-13T11:44:53.343Z,10.83
2022-10-13T11:47:42.247Z,13.33
2022-10-13T11:50:19.043Z,18.00
2022-10-13T11:53:01.685Z,14.80
2022-10-13T11:55:39.731Z,11.53
2022-10-13T11:58:16.633Z,15.43
2022-10-13T12:00:56.205Z,14.63
2022-10-13T12:03:27.593Z,16.83
2022-10-13T12:05:58.179Z,19.57
2022-10-13T12:08:27.668Z,15.53
2022-10-13T12:10:57.260Z,10.47
2022-10-13T12:13:28.216Z,15.07
2022-10-13T12:16:02.994Z,23.97
2022-10-13T12:18:34.364Z,12.70
2022-10-13T12:21:03.643Z,13.13
2022-10-13T12:23:32.870Z,13.80
2022-10-13T12:26:00.589Z,14.97
2022-10-13T12:28:31.788Z,14.17
2022-10-13T12:31:00.099Z,14.07
2022-10-13T12:33:32.336Z,7.60
2022-10-13T12:36:12.930Z,9.70
2022-10-13T12:38:45.964Z,15.50
2022-10-13T12:41:16.997Z,12.63
2022-10-13T12:43:46.718Z,15.13
2022-10-13T12:46:33.610Z,13.87
2022-10-13T12:49:05.015Z,14.00
2022-10-13T12:51:31.994Z,14.20
2022-10-13T12:53:59.194Z,8.77
2022-10-13T12:56:29.040Z,13.68
2022-10-13T12:58:59.438Z,14.97
2022-10-13T13:01:29.868Z,14.47
2022-10-13T13:03:59.868Z,16.02
2022-10-13T13:06:37.972Z,24.17
2022-10-13T13:09:30.016Z,12.47
2022-10-13T13:12:26.700Z,15.57
2022-10-13T13:14:56.049Z,12.20
2022-10-13T13:17:52.849Z,16.85
2022-10-13T13:20:25.757Z,17.10
2022-10-13T13:22:53.308Z,12.68
2022-10-13T13:25:20.497Z,18.30
2022-10-13T13:27:47.898Z,12.52
2022-10-13T13:30:18.772Z,14.02
2022-10-13T13:32:46.230Z,13.57
2022-10-13T13:35:13.752Z,12.93
2022-10-13T13:37:43.626Z,11.90
2022-10-13T13:40:15.785Z,12.27
2022-10-13T13:42:43.209Z,15.48
2022-10-13T13:45:13.207Z,17.13
2022-10-13T13:47:42.887Z,15.05
2022-10-13T13:50:16.450Z,13.35
2022-10-13T13:52:43.577Z,15.73
2022-10-13T13:55:10.582Z,15.70
2022-10-13T13:57:37.963Z,12.23
2022-10-13T14:00:06.444Z,13.77
2022-10-13T14:02:33.672Z,12.93
2022-10-13T14:05:01.932Z,11.00
2022-10-13T14:07:29.191Z,12.68
2022-10-13T14:09:59.253Z,10.88
2022-10-13T14:12:29.850Z,13.70
2022-10-13T14:14:59.691Z,11.93
2022-10-13T14:17:26.684Z,14.55
2022-10-13T14:19:53.934Z,13.68
2022-10-13T14:22:22.868Z,11.45
2022-10-13T14:24:50.605Z,8.05
2022-10-13T14:27:17.546Z,10.27
2022-10-13T14:29:44.904Z,12.48
2022-10-13T14:32:12.159Z,11.32
2022-10-13T14:34:39.538Z,8.65
2022-10-13T14:37:06.550Z,7.43
2022-10-13T14:39:35.080Z,15.88
2022-10-13T14:42:02.152Z,11.90
2022-10-13T14:44:29.507Z,10.57
2022-10-13T14:46:56.400Z,6.68
2022-10-13T14:49:23.639Z,8.98
2022-10-13T14:51:50.537Z,11.43
2022-10-13T14:54:18.208Z,8.20
2022-10-13T14:56:46.769Z,14.88
2022-10-13T14:59:14.026Z,9.57
2022-10-13T15:01:43.953Z,10.27
2022-10-13T15:04:11.564Z,10.48
2022-10-13T15:06:39.550Z,8.45
2022-10-13T15:11:39.398Z,7.70
2022-10-13T15:14:10.755Z,6.72
2022-10-13T15:16:37.888Z,7.03
2022-10-13T15:19:05.859Z,13.52
2022-10-13T15:21:32.776Z,10.18
2022-10-13T15:24:00.106Z,5.33
2022-10-13T15:26:27.137Z,12.07
2022-10-13T15:28:54.729Z,9.35
2022-10-13T15:31:23.872Z,8.30
2022-10-13T15:33:52.691Z,8.03
2022-10-13T15:36:20.748Z,11.10
2022-10-13T15:38:48.142Z,8.93
2022-10-13T15:41:16.071Z,12.87
2022-10-13T15:43:43.663Z,7.57
2022-10-13T15:46:12.511Z,8.43
2022-10-13T15:48:41.244Z,10.23
2022-10-13T15:51:13.479Z,8.30
2022-10-13T15:53:40.588Z,14.53
2022-10-13T15:56:08.636Z,8.70
2022-10-13T15:58:35.716Z,12.37
2022-10-13T16:01:07.143Z,15.83
2022-10-13T16:03:34.575Z,10.20
2022-10-13T16:06:06.197Z,13.73
2022-10-13T16:08:36.215Z,10.47
2022-10-13T16:11:07.666Z,10.40
2022-10-13T16:13:34.941Z,11.80
2022-10-13T16:16:01.976Z,8.73
2022-10-13T16:18:29.942Z,7.67
2022-10-13T16:20:56.879Z,8.10
2022-10-13T16:23:26.080Z,9.33
2022-10-13T16:25:53.591Z,10.70
2022-10-13T16:28:20.987Z,16.13
2022-10-13T16:30:48.056Z,9.67
2022-10-13T16:33:15.314Z,11.87
2022-10-13T16:35:42.167Z,11.40
2022-10-13T16:38:09.415Z,12.03
2022-10-13T16:40:39.301Z,10.17
2022-10-13T16:43:06.567Z,12.97
2022-10-13T16:45:54.962Z,10.50
2022-10-13T16:48:20.619Z,13.03
2022-10-13T16:50:47.470Z,10.13
2022-10-13T16:53:14.764Z,15.07
2022-10-13T16:55:43.160Z,10.47
2022-10-13T16:58:10.978Z,13.67
2022-10-13T17:00:38.117Z,15.93
2022-10-13T17:03:05.466Z,10.60
2022-10-13T17:05:33.060Z,15.77
2022-10-13T17:08:02.021Z,15.03
2022-10-13T17:10:29.067Z,14.87
2022-10-13T17:12:57.770Z,12.27
2022-10-13T17:15:24.649Z,11.17
2022-10-13T17:17:51.947Z,10.80
2022-10-13T17:20:18.929Z,17.80
2022-10-13T17:22:46.276Z,14.80
2022-10-13T17:25:13.461Z,13.40
2022-10-13T17:27:41.072Z,17.03
2022-10-13T17:30:11.149Z,25.20
2022-10-13T17:32:39.124Z,15.27
2022-10-13T17:35:06.831Z,19.97
2022-10-13T17:37:34.286Z,15.33
2022-10-13T17:40:01.340Z,16.90
2022-10-13T17:42:50.387Z,16.30
2022-10-13T17:45:19.344Z,21.07
2022-10-13T17:47:48.920Z,20.23
2022-10-13T17:50:16.345Z,19.23
2022-10-13T17:52:43.660Z,22.13
2022-10-13T17:55:10.810Z,17.73
2022-10-13T17:57:38.100Z,14.10
2022-10-13T18:00:06.403Z,20.80
2022-10-13T18:02:34.904Z,16.97
2022-10-13T18:05:01.751Z,13.03
2022-10-13T18:07:28.950Z,13.80
2022-10-13T18:09:55.910Z,14.37
2022-10-13T18:12:23.475Z,16.30
2022-10-13T18:14:50.659Z,17.73
2022-10-13T18:17:18.142Z,17.80
2022-10-13T18:19:48.395Z,16.03
2022-10-13T18:22:15.586Z,16.07
2022-10-13T18:24:42.439Z,16.50
2022-10-13T18:27:10.131Z,19.30
2022-10-13T18:29:37.101Z,15.37
2022-10-13T18:32:04.663Z,13.67
2022-10-13T18:34:31.530Z,17.17
2022-10-13T18:37:00.264Z,24.63
2022-10-13T18:39:28.710Z,22.17
2022-10-13T18:41:57.460Z,19.27
2022-10-13T18:44:25.069Z,17.30
2022-10-13T18:46:54.107Z,18.10
2022-10-13T18:49:30.821Z,16.37
2022-10-13T18:52:00.289Z,19.87
2022-10-13T18:54:28.720Z,19.07
2022-10-13T18:56:56.155Z,21.90
2022-10-13T18:59:23.243Z,19.53
2022-10-13T19:01:50.619Z,19.13
2022-10-13T19:04:17.650Z,22.93
2022-10-13T19:06:45.143Z,22.90
2022-10-13T19:09:14.969Z,23.57
2022-10-13T19:11:42.259Z,24.63
2022-10-13T19:14:12.640Z,21.83
2022-10-13T19:16:42.075Z,22.73
2022-10-13T19:19:09.262Z,15.37
2022-10-13T19:21:37.911Z,30.50
2022-10-13T19:24:06.605Z,18.33
2022-10-13T19:26:35.913Z,17.80
2022-10-13T19:29:05.272Z,17.50
2022-10-13T19:31:33.924Z,23.03
2022-10-13T19:34:01.130Z,23.73
2022-10-13T19:36:31.949Z,17.03
2022-10-13T19:38:59.821Z,15.17
2022-10-13T19:41:29.589Z,17.00
2022-10-13T19:43:58.090Z,19.47
2022-10-13T19:46:25.464Z,24.03
2022-10-13T19:48:52.407Z,24.83
2022-10-13T19:51:19.730Z,24.90
2022-10-13T19:53:46.632Z,24.53
2022-10-13T19:56:23.020Z,24.10
2022-10-13T19:58:50.703Z,22.33
2022-10-13T20:01:20.133Z,17.50
2022-10-13T20:03:47.689Z,16.20
2022-10-13T20:06:15.865Z,19.50
2022-10-13T20:08:42.950Z,24.67
2022-10-13T20:11:13.314Z,24.47
2022-10-13T20:13:40.255Z,18.33
2022-10-13T20:16:09.200Z,24.90
2022-10-13T20:18:37.677Z,23.83
2022-10-13T20:21:05.462Z,21.40
2022-10-13T20:23:33.588Z,15.30
2022-10-13T20:26:02.799Z,24.80
2022-10-13T20:28:31.383Z,26.17
2022-10-13T20:31:00.815Z,18.53
2022-10-13T20:33:28.325Z,22.93
2022-10-13T20:36:00.148Z,20.30
2022-10-13T20:38:29.483Z,22.47
2022-10-13T20:41:03.800Z,20.43
2022-10-13T20:43:31.209Z,21.43
2022-10-13T20:46:02.008Z,22.40
2022-10-13T20:48:51.035Z,24.37
2022-10-13T20:51:22.096Z,21.77
2022-10-13T20:53:49.264Z,22.27
2022-10-13T20:56:18.447Z,26.20
2022-10-13T20:58:45.576Z,22.50
2022-10-13T21:01:12.930Z,21.50
2022-10-13T21:03:40.667Z,25.67
2022-10-13T21:06:09.640Z,23.93
2022-10-13T21:08:38.414Z,27.17
2022-10-13T21:11:07.171Z,19.30
2022-10-13T21:13:34.848Z,28.73
2022-10-13T21:16:06.944Z,20.27
2022-10-13T21:18:34.304Z,19.97
2022-10-13T21:21:05.298Z,21.57
2022-10-13T21:23:32.480Z,26.03
2022-10-13T21:26:03.706Z,25.23
2022-10-13T21:28:31.155Z,29.50
2022-10-13T21:31:02.964Z,23.63
2022-10-13T21:33:29.971Z,29.10
2022-10-13T21:35:57.187Z,21.70
2022-10-13T21:38:24.819Z,20.97
2022-10-13T21:40:53.995Z,24.10
2022-10-13T21:43:22.757Z,24.40
2022-10-13T21:45:49.598Z,22.10
2022-10-13T21:48:16.799Z,20.27
2022-10-13T21:50:43.798Z,22.47
2022-10-13T21:53:10.976Z,23.87
2022-10-13T21:55:37.894Z,27.73
2022-10-13T21:58:05.549Z,24.53
2022-10-13T22:00:33.882Z,22.60
2022-10-13T22:03:01.054Z,27.57
2022-10-13T22:05:27.926Z,19.77
2022-10-13T22:07:54.951Z,26.30
2022-10-13T22:10:21.818Z,25.90
2022-10-13T22:12:48.969Z,26.17
2022-10-13T22:15:15.890Z,30.77
2022-10-13T22:17:44.401Z,32.93
2022-10-13T22:20:11.241Z,24.77
2022-10-13T22:22:38.603Z,26.70
2022-10-13T22:25:06.613Z,25.33
2022-10-13T22:27:33.836Z,30.27
2022-10-13T22:30:00.661Z,26.40
2022-10-13T22:32:27.954Z,26.63
2022-10-13T22:34:56.105Z,25.50
2022-10-13T22:37:23.724Z,25.13
2022-10-13T22:39:51.698Z,22.97
2022-10-13T22:42:18.934Z,28.43
2022-10-13T22:44:45.833Z,22.63
2022-10-13T22:47:13.094Z,21.27
2022-10-13T22:49:39.906Z,20.53
2022-10-13T22:52:08.627Z,27.03
2022-10-13T22:54:35.545Z,28.80
2022-10-13T22:57:03.069Z,24.67
2022-10-13T22:59:29.970Z,24.00
2022-10-13T23:01:57.217Z,24.10
2022-10-13T23:04:24.075Z,25.27
2022-10-13T23:06:51.423Z,24.00
2022-10-13T23:09:19.594Z,25.63
2022-10-13T23:11:46.737Z,27.97
2022-10-13T23:14:13.524Z,25.97
2022-10-13T23:16:40.709Z,24.77
2022-10-13T23:19:07.574Z,22.73
2022-10-13T23:21:34.737Z,23.40
2022-10-13T23:24:04.221Z,24.00
2022-10-13T23:26:34.196Z,23.63
2022-10-13T23:29:01.775Z,21.77
2022-10-13T23:31:29.564Z,32.03
2022-10-13T23:33:57.264Z,25.60
2022-10-13T23:36:26.284Z,29.37
2022-10-13T23:38:57.035Z,26.17
2022-10-13T23:41:25.007Z,30.77
2022-10-13T23:43:53.319Z,21.33
2022-10-13T23:46:20.696Z,27.60
2022-10-13T23:48:47.717Z,31.70
2022-10-13T23:51:17.649Z,24.83
2022-10-13T23:53:44.956Z,26.87
2022-10-13T23:56:13.163Z,30.60
2022-10-13T23:58:42.103Z,26.93
